• Join FlightAware (Why Join?)
  • Login
  • US Flag 
11:03AM EST


 

Airport Tracker/Info


-or-


 

Live Flight TrackerFlight Track Log ✈ FLG3429 ✈ 30-Jul-2013 ✈ KJFK - KJAX

Flight Track Log - Related Links

Times and Time Zones

All times are in EDT time to prevent confusion due to time zone crossing. See the FLG3429 flight status page for this flight to view local times or setup timezone preferences in your user account.

Time Position Orientation Groundspeed Altitude Reporting Facility
EDT Latitude Longitude Course Direction KTS MPH feet Rate Location/Type
07:52PM 40.6489 -73.8428 201° Southwest 175 201 1,600  Level New York Center
07:53PM 40.6142 -73.8903 226° Southwest 224 258 3,300 2,040 Climbing New York Center
07:55PM 40.3456 -73.9870 211° Southwest  Level FlightAware Approximate
07:55PM 40.5500 -73.9500 215° Southwest 273 314 6,000  Level New York TRACON
07:56PM 40.2494 -74.0615 207° Southwest  Level FlightAware Approximate
07:56PM 40.4833 -74.0000 210° Southwest 278 320 8,800  Level New York TRACON
07:57PM 40.1498 -74.1280 207° Southwest  Level FlightAware Approximate
07:57PM 40.4167 -74.0667 217° Southwest 302 348 10,700  Level New York TRACON
07:57PM 40.3328 -74.1253 208° Southwest 352 405 11,700 1,200 Climbing New York Center
07:58PM 40.0528 -74.1986 201° Southwest  Level FlightAware Approximate
07:58PM 40.2497 -74.1811 207° Southwest 367 422 13,100  Level New York Center
08:00PM 40.0536 -74.2364 192° South 391 450 16,400 1,620 Climbing Washington Center
08:01PM 39.9647 -74.2867 203° Southwest 397 457 17,700 1,200 Climbing Washington Center
08:02PM 39.8739 -74.3775 218° Southwest 397 457 18,800 1,200 Climbing Washington Center
08:03PM 39.7833 -74.4736 219° Southwest 408 470 20,100 1,260 Climbing Washington Center
08:04PM 39.7031 -74.5828 226° Southwest 414 476 21,400 1,140 Climbing Washington Center
08:05PM 39.6183 -74.6944 225° Southwest 426 490 22,400 1,020 Climbing Washington Center
08:06PM 39.5317 -74.8086 225° Southwest 436 502 23,500 1,140 Climbing Washington Center
08:07PM 39.4450 -74.9225 225° Southwest 441 507 24,700 1,320 Climbing Washington Center
08:08PM 39.3558 -75.0414 226° Southwest 447 514 26,200 1,500 Climbing Washington Center
08:09PM 39.2606 -75.1414 219° Southwest 447 514 27,800 1,680 Climbing Washington Center
08:10PM 39.1567 -75.2169 209° Southwest 452 520 29,700 1,560 Climbing Washington Center
08:11PM 39.0506 -75.3003 211° Southwest 440 506 31,000 1,200 Climbing Washington Center
08:12PM 38.9486 -75.3781 211° Southwest 440 506 32,200 840 Climbing Washington Center
08:13PM 38.8464 -75.4636 213° Southwest 440 506 32,800 720 Climbing Washington Center
08:14PM 38.7361 -75.5383 208° Southwest 446 513 33,700 600 Climbing Washington Center
08:15PM 38.6297 -75.6183 210° Southwest 451 519 34,000 120 Climbing Washington Center
08:16PM 38.5192 -75.7058 212° Southwest 458 527 34,000  Level Washington Center
08:17PM 38.4022 -75.7878 209° Southwest 470 541 34,000 60 Level Washington Center
08:18PM 38.2708 -75.8853 210° Southwest 481 554 34,200 600 Climbing Washington Center
08:19PM 38.1558 -75.9719 211° Southwest 486 559 35,300 840 Climbing Washington Center
08:20PM 38.0408 -76.0531 209° Southwest 486 559 36,000 300 Climbing Washington Center
08:21PM 37.9258 -76.1394 211° Southwest 486 559 36,000 120 Level Washington Center
08:22PM 37.8128 -76.2225 210° Southwest 486 559 36,300 600 Climbing Washington Center
08:23PM 37.6997 -76.3031 209° Southwest 486 559 37,300 780 Climbing Washington Center
08:24PM 37.5908 -76.3833 210° Southwest 475 547 37,900 300 Climbing Washington Center
08:25PM 37.4797 -76.4606 209° Southwest 465 535 38,000  Climbing Washington Center
08:26PM 37.3686 -76.5431 211° Southwest 465 535 38,000  Level Washington Center
08:27PM 37.2553 -76.6200 208° Southwest 465 535 38,000  Level Washington Center
08:28PM 37.1397 -76.7017 209° Southwest 465 535 38,000  Level Washington Center
08:29PM 37.0283 -76.7861 211° Southwest 470 541 38,000  Level Washington Center
08:30PM 36.9297 -76.8597 211° Southwest 470 541 38,000  Level Washington Center
08:31PM 36.8014 -76.9486 209° Southwest 470 541 38,000  Level Washington Center
08:32PM 36.6900 -77.0319 211° Southwest 470 541 38,000  Level Washington Center
08:33PM 36.5844 -77.1206 214° Southwest 470 541 38,000  Level Washington Center
08:34PM 36.4789 -77.2089 214° Southwest 465 535 38,000  Level Washington Center
08:35PM 36.3714 -77.2972 213° Southwest 465 535 38,000  Level Washington Center
08:36PM 36.2658 -77.3875 215° Southwest 470 541 38,000  Level Washington Center
08:37PM 36.1622 -77.4728 214° Southwest 470 541 38,000  Level Washington Center
08:38PM 36.0544 -77.5625 214° Southwest 464 534 38,000  Level Washington Center
08:39PM 35.9486 -77.6497 214° Southwest 469 540 38,000  Level Washington Center
08:40PM 35.8383 -77.7392 213° Southwest 474 545 38,000  Level Washington Center
08:41PM 35.7283 -77.8256 213° Southwest 474 545 38,000  Level Washington Center
08:42PM 35.6225 -77.9122 214° Southwest 474 545 38,000  Level Washington Center
08:43PM 35.5100 -78.0008 213° Southwest 474 545 38,000  Level Washington Center
08:44PM 35.3978 -78.0892 213° Southwest 474 545 38,000  Level Washington Center
08:45PM 35.2872 -78.1797 214° Southwest 474 545 38,000  Level Washington Center
08:46PM 35.1747 -78.2703 213° Southwest 480 552 38,000  Level Washington Center
08:47PM 35.0619 -78.3603 213° Southwest 485 558 38,000  Level Washington Center
08:48PM 34.9619 -78.4406 213° Southwest 485 558 38,000  Level Washington Center
08:51PM 34.6753 -78.6667 213° Southwest 471 542 38,000  Level Jacksonville Center
08:52PM 34.5614 -78.7553 213° Southwest 476 548 38,000  Level Jacksonville Center
08:53PM 34.4417 -78.8594 216° Southwest 487 560 38,000  Level Jacksonville Center
08:54PM 34.3275 -78.9475 213° Southwest 493 567 38,000  Level Jacksonville Center
08:55PM 34.2114 -79.0358 212° Southwest 493 567 38,000  Level Jacksonville Center
08:56PM 34.0953 -79.1286 214° Southwest 493 567 38,000  Level Jacksonville Center
08:57PM 33.9769 -79.2164 212° Southwest 493 567 38,000  Level Jacksonville Center
08:58PM 33.8647 -79.3036 213° Southwest 493 567 38,000  Level Jacksonville Center
08:59PM 33.7481 -79.3908 212° Southwest 493 567 38,000  Level Jacksonville Center
09:00PM 33.6500 -79.4644 212° Southwest 487 560 38,000  Level Jacksonville Center
09:01PM 33.5336 -79.5561 213° Southwest 487 560 38,000 -60 Level Jacksonville Center
09:02PM 33.4169 -79.6428 212° Southwest 494 568 37,900 -600 Descending Jacksonville Center
09:03PM 33.3042 -79.7264 212° Southwest 494 568 36,800 -960 Descending Jacksonville Center
09:04PM 33.1894 -79.8147 213° Southwest 489 563 36,000 -900 Descending Jacksonville Center
09:05PM 33.0725 -79.8981 211° Southwest 489 563 35,100 -960 Descending Jacksonville Center
09:06PM 32.9456 -79.9964 213° Southwest 494 568 34,100 -600 Descending Jacksonville Center
09:07PM 32.8264 -80.0869 213° Southwest 494 568 34,000 -360 Descending Jacksonville Center
09:08PM 32.7094 -80.1792 214° Southwest 499 574 33,400 -840 Descending Jacksonville Center
09:09PM 32.5986 -80.2689 214° Southwest 498 573 32,400 -1,020 Descending Jacksonville Center
09:10PM 32.4856 -80.3558 213° Southwest 498 573 31,400 -1,020 Descending Jacksonville Center
09:11PM 32.3725 -80.4453 214° Southwest 498 573 30,400 -1,140 Descending Jacksonville Center
09:12PM 32.2572 -80.5342 213° Southwest 491 565 29,200 -1,260 Descending Jacksonville Center
09:13PM 32.1483 -80.6181 213° Southwest 477 549 27,900 -1,320 Descending Jacksonville Center
09:14PM 32.0453 -80.6989 214° Southwest 464 534 26,600 -1,320 Descending Jacksonville Center
09:15PM 31.9464 -80.7747 213° Southwest 469 540 25,300 -1,500 Descending Jacksonville Center
09:16PM 31.8267 -80.8606 211° Southwest 474 545 23,700 -1,620 Descending Jacksonville Center
09:17PM 31.7192 -80.9314 209° Southwest 451 519 22,100 -1,800 Descending Jacksonville Center
09:18PM 31.6219 -80.9919 208° Southwest 450 518 20,200 -2,100 Descending Jacksonville Center
09:19PM 31.5039 -81.0625 207° Southwest 436 502 18,000 -1,980 Descending Jacksonville Center
09:20PM 31.4047 -81.1231 208° Southwest 410 472 16,300 -1,800 Descending Jacksonville Center
09:21PM 31.3197 -81.1781 209° Southwest 398 458 14,400 -1,980 Descending Jacksonville Center
09:22PM 31.2247 -81.2431 210° Southwest 398 458 12,400 -2,100 Descending Jacksonville Center
09:22PM 31.1644 -81.2731 203° Southwest 386 444 11,200 -1,560 Descending Jacksonville Center
09:23PM 31.0628 -81.3233 203° Southwest 371 427 10,000 -600 Descending Jacksonville Center
09:24PM 30.9694 -81.3733 205° Southwest 376 433 10,000  Level Jacksonville Center
09:25PM 30.8864 -81.4183 205° Southwest 291 335 10,000 -840 Level Jacksonville Center
09:26PM 30.8286 -81.4653 215° Southwest 281 323 8,400 -1,800 Descending Jacksonville Center
09:27PM 30.8058 -81.4897 223° Southwest 306 352 7,500 -2,100 Descending Jacksonville Center
09:27PM 30.7603 -81.5194 209° Southwest 272 313 6,100 -1,740 Descending Jacksonville Center
09:28PM 30.6894 -81.5278 186° South 248 285 4,700 -1,320 Descending Jacksonville Center
09:29PM 30.6350 -81.5308 183° South 174 200 3,500 -1,440 Descending Jacksonville Center
09:30PM 30.5933 -81.5458 197° South 170 196 2,000 -1,020 Descending Jacksonville Center
09:31PM 30.5519 -81.5731 210° Southwest 169 194 1,600 -420 Descending Jacksonville Center
09:32PM 30.5272 -81.6047 228° Southwest 147 169 1,300 -600 Descending Jacksonville Center
09:33PM 30.5131 -81.6458 248° West 153 176 500 -840 Descending Jacksonville Center